Time;durP1;ratioP1;P1;durP2;ratioP2;P2;SDS_P1;SDS_P2;PMS_P1;PMS_P2;Temp;Humidity;BMP_temperature;BMP_pressure;BME280_temperature;BME280_humidity;BME280_pressure;Samples;Min_cycle;Max_cycle;Signal;HPM_P1;HPM_P2
2023/06/25 00:02:15;;;;;;;3.20;3.00;;;;;;;19.12;100.00;99895.63;105096;1261;63917;-48
2023/06/25 00:04:43;;;;;;;5.80;2.10;;;;;;;19.11;100.00;99896.30;104857;1262;62378;-47
2023/06/25 00:07:10;;;;;;;4.10;2.40;;;;;;;19.10;100.00;99894.36;105084;1263;72065;-47
2023/06/25 00:09:39;;;;;;;7.30;2.60;;;;;;;19.09;100.00;99897.70;104998;1262;66502;-47
2023/06/25 00:12:08;;;;;;;5.00;2.20;;;;;;;19.09;100.00;99903.21;105083;1261;70445;-48
2023/06/25 00:14:35;;;;;;;4.50;2.70;;;;;;;19.07;100.00;99905.88;105213;1259;61826;-47
2023/06/25 00:17:03;;;;;;;2.90;2.70;;;;;;;19.06;100.00;99902.14;104974;1262;59660;-47
2023/06/25 00:19:30;;;;;;;5.00;2.60;;;;;;;19.06;100.00;99905.95;105029;1259;73009;-47
2023/06/25 00:21:57;;;;;;;5.80;2.20;;;;;;;19.06;100.00;99897.41;105028;1257;66655;-47
2023/06/25 00:24:25;;;;;;;3.10;2.50;;;;;;;19.06;100.00;99894.13;104875;1257;75366;-47
2023/06/25 00:26:52;;;;;;;3.00;2.80;;;;;;;19.05;100.00;99892.77;105166;1259;61698;-47
2023/06/25 00:29:20;;;;;;;5.30;3.00;;;;;;;19.04;100.00;99892.11;105241;1258;59766;-47
2023/06/25 00:31:47;;;;;;;5.20;3.10;;;;;;;19.02;100.00;99896.05;105292;1254;73026;-48
2023/06/25 00:34:19;;;;;;;3.40;3.10;;;;;;;19.02;100.00;99893.55;105223;1259;67730;-48
2023/06/25 00:36:51;;;;;;;4.30;3.30;;;;;;;19.00;100.00;99891.71;105333;1255;72726;-47
2023/06/25 00:39:19;;;;;;;6.10;4.30;;;;;;;18.99;100.00;99888.91;105325;1255;60303;-47
2023/06/25 00:41:50;;;;;;;4.50;3.60;;;;;;;18.96;100.00;99891.15;109021;1254;60001;-49
2023/06/25 00:44:17;;;;;;;4.00;3.70;;;;;;;18.93;100.00;99894.08;109065;1254;71911;-48
2023/06/25 00:46:44;;;;;;;5.70;3.90;;;;;;;18.91;100.00;99893.56;108878;1253;68454;-48
2023/06/25 00:49:13;;;;;;;4.10;3.80;;;;;;;18.89;100.00;99891.14;108897;1253;72614;-49
2023/06/25 00:51:41;;;;;;;4.70;4.40;;;;;;;18.87;100.00;99890.55;108681;1256;61806;-46
2023/06/25 00:54:08;;;;;;;4.90;4.50;;;;;;;18.87;100.00;99887.29;108823;1253;58728;-46
2023/06/25 00:56:37;;;;;;;5.50;4.00;;;;;;;18.89;100.00;99880.54;108956;1253;71988;-46
2023/06/25 00:59:05;;;;;;;4.60;4.30;;;;;;;18.92;100.00;99876.95;109023;1253;68034;-45
2023/06/25 01:01:45;;;;;;;4.20;3.20;;;;;;;18.92;100.00;99868.56;108831;1254;71391;-46
2023/06/25 01:04:19;;;;;;;7.00;4.10;;;;;;;18.90;100.00;99865.61;108978;1254;59506;-47
2023/06/25 01:06:48;;;;;;;5.30;3.80;;;;;;;18.87;100.00;99859.45;109048;1253;59199;-48
2023/06/25 01:09:15;;;;;;;4.00;3.70;;;;;;;18.86;100.00;99857.42;108915;1258;72978;-46
2023/06/25 01:12:18;;;;;;;3.70;3.40;;;;;;;18.85;100.00;99847.30;109126;1258;67865;-46
2023/06/25 01:14:49;;;;;;;3.20;3.00;;;;;;;18.84;100.00;99841.38;105209;1264;71397;-46
2023/06/25 01:17:16;;;;;;;4.30;3.20;;;;;;;18.85;100.00;99844.23;105083;1256;61715;-48
2023/06/25 01:19:45;;;;;;;3.30;3.00;;;;;;;18.88;100.00;99843.92;105771;1254;60509;-45
2023/06/25 01:22:14;;;;;;;4.40;4.00;;;;;;;18.92;100.00;99837.45;105110;1255;72308;-47
2023/06/25 01:24:44;;;;;;;3.90;3.60;;;;;;;18.95;100.00;99833.42;105265;1254;65819;-48
2023/06/25 01:27:12;;;;;;;4.20;4.00;;;;;;;18.98;100.00;99828.23;105263;1258;73566;-45
2023/06/25 01:29:42;;;;;;;3.60;3.30;;;;;;;19.01;100.00;99826.91;105150;1255;61323;-47
2023/06/25 01:32:09;;;;;;;3.50;3.20;;;;;;;19.01;100.00;99823.29;105556;1255;60526;-47
2023/06/25 01:34:37;;;;;;;4.20;3.80;;;;;;;19.02;100.00;99824.11;105223;1260;73790;-45
2023/06/25 01:37:06;;;;;;;3.40;3.20;;;;;;;19.01;100.00;99823.83;105267;1253;66052;-45
2023/06/25 01:39:33;;;;;;;3.60;3.30;;;;;;;18.99;100.00;99821.25;105271;1257;73164;-47
2023/06/25 01:42:01;;;;;;;4.00;3.70;;;;;;;18.98;100.00;99823.85;105274;1259;61672;-46
2023/06/25 01:44:30;;;;;;;3.70;3.50;;;;;;;18.98;100.00;99820.08;105262;1253;61134;-45
2023/06/25 01:46:57;;;;;;;3.70;3.50;;;;;;;18.96;100.00;99821.49;105307;1254;72665;-46
2023/06/25 01:49:25;;;;;;;3.50;3.30;;;;;;;18.95;100.00;99817.20;105194;1259;69905;-48
2023/06/25 01:52:02;;;;;;;4.70;4.40;;;;;;;18.96;100.00;99818.25;105169;1259;71750;-46
2023/06/25 01:54:29;;;;;;;3.80;3.50;;;;;;;18.98;100.00;99815.49;105317;1254;61664;-48
2023/06/25 01:56:57;;;;;;;3.70;3.50;;;;;;;19.01;100.00;99818.38;105280;1259;61003;-46
2023/06/25 01:59:24;;;;;;;3.10;3.00;;;;;;;19.01;100.00;99818.55;105434;1254;73911;-46
2023/06/25 02:01:52;;;;;;;3.50;3.30;;;;;;;19.00;100.00;99820.21;105298;1262;67900;-48
2023/06/25 02:04:20;;;;;;;3.70;3.40;;;;;;;19.01;100.00;99823.46;108714;1253;72656;-45
2023/06/25 02:06:47;;;;;;;3.20;3.00;;;;;;;19.02;100.00;99824.23;107081;1256;61607;-47
2023/06/25 02:09:15;;;;;;;3.50;3.30;;;;;;;19.04;100.00;99821.41;105214;1254;61126;-46
2023/06/25 02:11:42;;;;;;;4.40;4.20;;;;;;;19.06;100.00;99823.23;105285;1256;73857;-48
2023/06/25 02:14:10;;;;;;;4.00;3.70;;;;;;;19.07;100.00;99827.66;105315;1258;66406;-47
2023/06/25 02:16:40;;;;;;;3.40;3.20;;;;;;;19.05;100.00;99823.44;105100;1256;72697;-47
2023/06/25 02:19:08;;;;;;;3.50;3.30;;;;;;;19.04;100.00;99819.01;105187;1258;60431;-48
2023/06/25 02:21:35;;;;;;;3.60;3.10;;;;;;;19.06;100.00;99821.17;105142;1253;60363;-45
2023/06/25 02:24:05;;;;;;;3.50;3.30;;;;;;;19.08;100.00;99821.23;105384;1258;72191;-45
2023/06/25 02:26:32;;;;;;;5.10;4.30;;;;;;;19.07;100.00;99824.21;105338;1256;66332;-47
2023/06/25 02:29:00;;;;;;;4.50;3.80;;;;;;;19.06;100.00;99824.32;105653;1257;72460;-44
2023/06/25 02:31:27;;;;;;;3.30;3.10;;;;;;;19.03;100.00;99826.35;105367;1256;61319;-47
2023/06/25 02:33:54;;;;;;;4.20;4.00;;;;;;;19.02;100.00;99824.84;105285;1256;60512;-46
2023/06/25 02:36:22;;;;;;;4.20;3.50;;;;;;;19.00;100.00;99823.73;105341;1259;73850;-44
2023/06/25 02:38:49;;;;;;;4.60;4.40;;;;;;;19.00;100.00;99811.17;105412;1258;66454;-46
2023/06/25 02:41:16;;;;;;;4.30;3.90;;;;;;;19.02;100.00;99800.12;105127;1260;72639;-48
2023/06/25 02:43:44;;;;;;;3.50;3.20;;;;;;;19.04;100.00;99789.39;105305;1256;60599;-46
2023/06/25 02:46:11;;;;;;;4.30;4.00;;;;;;;19.06;100.00;99789.59;106524;1257;61226;-45
2023/06/25 02:48:42;;;;;;;3.10;3.00;;;;;;;19.08;100.00;99788.70;105237;1259;72551;-46
2023/06/25 02:51:11;;;;;;;5.00;4.60;;;;;;;19.11;100.00;99782.08;105474;1260;67498;-47
2023/06/25 02:53:38;;;;;;;4.10;3.90;;;;;;;19.14;100.00;99782.48;105247;1259;72524;-46
2023/06/25 02:56:05;;;;;;;5.00;4.50;;;;;;;19.17;100.00;99787.73;105250;1253;61808;-46
2023/06/25 02:58:32;;;;;;;4.70;4.30;;;;;;;19.17;100.00;99793.35;105276;1259;60636;-46
2023/06/25 03:01:00;;;;;;;4.30;3.50;;;;;;;19.18;100.00;99787.66;105240;1258;72977;-46
2023/06/25 03:03:27;;;;;;;5.70;5.20;;;;;;;19.18;100.00;99786.58;105206;1261;66270;-48
2023/06/25 03:05:55;;;;;;;4.70;4.40;;;;;;;19.17;100.00;99783.87;105189;1258;72794;-46
2023/06/25 03:08:24;;;;;;;4.80;4.40;;;;;;;19.17;100.00;99783.20;105246;1262;60522;-45
2023/06/25 03:10:51;;;;;;;4.70;4.40;;;;;;;19.15;100.00;99779.66;108850;1254;59971;-45
2023/06/25 03:13:19;;;;;;;3.60;3.30;;;;;;;19.15;100.00;99778.77;108887;1255;72645;-46
2023/06/25 03:15:46;;;;;;;3.60;3.40;;;;;;;19.17;100.00;99772.95;105325;1256;67003;-47
2023/06/25 03:18:13;;;;;;;4.70;4.40;;;;;;;19.19;100.00;99772.41;105656;1258;72684;-48
2023/06/25 03:20:41;;;;;;;4.20;3.90;;;;;;;19.21;100.00;99770.83;105167;1258;61676;-47
2023/06/25 03:23:08;;;;;;;4.90;4.70;;;;;;;19.23;100.00;99763.39;105414;1258;60482;-47
2023/06/25 03:25:36;;;;;;;6.10;5.60;;;;;;;19.24;100.00;99761.48;105103;1256;72587;-48
2023/06/25 03:28:15;;;;;;;6.90;6.30;;;;;;;19.26;100.00;99761.30;105239;1259;67994;-45
2023/06/25 03:30:46;;;;;;;6.10;5.40;;;;;;;19.28;100.00;99761.52;108991;1253;73218;-47
2023/06/25 03:33:14;;;;;;;7.10;6.60;;;;;;;19.28;100.00;99763.29;108918;1256;59799;-46
2023/06/25 03:35:41;;;;;;;6.20;5.80;;;;;;;19.30;100.00;99760.65;108911;1255;58822;-45
2023/06/25 03:38:10;;;;;;;6.40;5.90;;;;;;;19.31;100.00;99755.84;108834;1255;72524;-47
2023/06/25 03:40:38;;;;;;;7.40;6.80;;;;;;;19.33;100.00;99750.38;108905;1256;67533;-46
2023/06/25 03:43:05;;;;;;;6.70;6.20;;;;;;;19.35;100.00;99748.95;108968;1256;72519;-45
2023/06/25 03:45:34;;;;;;;6.00;5.60;;;;;;;19.37;100.00;99747.08;108832;1254;61642;-45
2023/06/25 03:48:01;;;;;;;7.40;6.80;;;;;;;19.38;100.00;99748.09;108898;1254;62289;-47
2023/06/25 03:50:29;;;;;;;6.10;5.80;;;;;;;19.40;100.00;99750.16;108834;1253;72624;-46
2023/06/25 03:52:56;;;;;;;6.70;6.20;;;;;;;19.38;100.00;99753.54;109003;1254;67571;-47
2023/06/25 03:55:24;;;;;;;8.20;7.70;;;;;;;19.38;100.00;99752.48;108716;1256;72663;-45
2023/06/25 03:57:55;;;;;;;7.20;6.70;;;;;;;19.38;100.00;99750.85;108957;1254;60678;-44
2023/06/25 04:00:22;;;;;;;8.00;7.50;;;;;;;19.39;100.00;99751.32;108827;1256;59569;-45
2023/06/25 04:02:49;;;;;;;7.00;6.50;;;;;;;19.40;100.00;99753.17;108920;1253;74229;-45
2023/06/25 04:05:17;;;;;;;7.00;6.60;;;;;;;19.42;100.00;99753.00;108964;1254;67611;-45
2023/06/25 04:07:46;;;;;;;6.30;6.00;;;;;;;19.47;100.00;99758.67;108852;1254;72647;-45
2023/06/25 04:10:14;;;;;;;7.00;6.40;;;;;;;19.52;100.00;99756.01;108813;1254;60364;-45
2023/06/25 04:12:42;;;;;;;5.50;5.20;;;;;;;19.58;100.00;99756.58;108823;1253;58821;-45
2023/06/25 04:15:10;;;;;;;7.20;6.70;;;;;;;19.65;100.00;99754.52;108937;1253;74216;-47
2023/06/25 04:17:39;;;;;;;7.20;6.70;;;;;;;19.72;100.00;99748.71;107935;1259;67088;-45
2023/06/25 04:20:08;;;;;;;6.60;6.10;;;;;;;19.78;100.00;99749.45;106233;1255;71514;-46
2023/06/25 04:22:35;;;;;;;6.00;5.40;;;;;;;19.83;100.00;99738.95;106190;1257;61693;-46
2023/06/25 04:25:03;;;;;;;6.60;5.70;;;;;;;19.90;100.00;99740.55;105307;1262;60410;-46
2023/06/25 04:27:31;;;;;;;4.90;4.60;;;;;;;19.95;100.00;99734.60;106466;1256;73121;-47
2023/06/25 04:29:58;;;;;;;6.40;5.70;;;;;;;20.01;100.00;99730.66;105125;1256;68342;-46
2023/06/25 04:32:26;;;;;;;5.60;5.20;;;;;;;20.06;100.00;99730.59;105141;1256;71415;-46
2023/06/25 04:34:54;;;;;;;7.00;6.00;;;;;;;20.10;100.00;99722.03;105218;1256;60591;-47
2023/06/25 04:37:21;;;;;;;6.70;5.70;;;;;;;20.13;100.00;99717.41;105224;1258;60299;-47
2023/06/25 04:39:49;;;;;;;4.60;4.40;;;;;;;20.16;100.00;99715.71;105371;1259;72653;-47
2023/06/25 04:42:16;;;;;;;5.30;5.00;;;;;;;20.18;100.00;99720.01;105018;1255;68352;-46
2023/06/25 04:44:44;;;;;;;5.20;4.90;;;;;;;20.21;100.00;99717.73;105264;1259;72458;-47
2023/06/25 04:47:11;;;;;;;5.50;5.00;;;;;;;20.25;100.00;99716.28;105219;1254;61636;-46
2023/06/25 04:49:38;;;;;;;5.60;5.30;;;;;;;20.29;100.00;99715.78;105253;1260;60448;-46
2023/06/25 04:52:06;;;;;;;5.80;5.40;;;;;;;20.33;100.00;99706.31;105269;1255;74310;-44
2023/06/25 04:54:34;;;;;;;9.10;5.20;;;;;;;20.38;100.00;99703.89;105305;1254;67692;-46
2023/06/25 04:57:01;;;;;;;4.30;3.90;;;;;;;20.44;100.00;99700.40;105322;1259;71790;-46
2023/06/25 04:59:28;;;;;;;3.80;3.60;;;;;;;20.50;100.00;99700.63;105393;1256;61662;-45
2023/06/25 05:01:56;;;;;;;5.40;4.10;;;;;;;20.55;100.00;99697.98;105356;1253;60544;-45
2023/06/25 05:04:23;;;;;;;3.70;3.50;;;;;;;20.60;100.00;99696.63;105416;1258;74347;-48
2023/06/25 05:06:51;;;;;;;2.80;2.40;;;;;;;20.64;100.00;99691.33;105326;1256;67988;-47
2023/06/25 05:09:18;;;;;;;4.10;3.80;;;;;;;20.70;100.00;99688.95;105589;1259;72662;-47
2023/06/25 05:11:46;;;;;;;3.20;2.90;;;;;;;20.75;100.00;99682.44;105307;1257;60770;-46
2023/06/25 05:14:16;;;;;;;2.50;2.30;;;;;;;20.81;100.00;99674.06;105272;1259;60587;-46
2023/06/25 05:16:44;;;;;;;2.80;2.60;;;;;;;20.88;100.00;99667.29;105244;1258;74171;-46
2023/06/25 05:19:11;;;;;;;3.60;3.30;;;;;;;20.93;100.00;99661.10;105295;1256;66743;-47
2023/06/25 05:21:39;;;;;;;3.00;2.20;;;;;;;20.98;100.00;99661.35;105206;1258;71424;-48
2023/06/25 05:24:06;;;;;;;2.50;2.40;;;;;;;21.02;100.00;99654.91;105588;1255;59393;-47
2023/06/25 05:26:33;;;;;;;2.60;2.40;;;;;;;21.07;100.00;99648.63;105373;1257;60480;-49
2023/06/25 05:29:01;;;;;;;2.50;2.40;;;;;;;21.13;100.00;99644.47;105339;1256;73821;-45
2023/06/25 05:31:29;;;;;;;2.10;1.90;;;;;;;21.18;100.00;99635.27;105442;1254;66791;-45
2023/06/25 05:33:56;;;;;;;2.70;2.20;;;;;;;21.22;100.00;99636.00;105211;1260;72674;-46
2023/06/25 05:36:24;;;;;;;1.50;1.40;;;;;;;21.25;100.00;99634.06;105251;1258;62314;-45
2023/06/25 05:38:51;;;;;;;2.50;2.30;;;;;;;21.28;100.00;99627.58;104846;1259;60435;-47
2023/06/25 05:41:18;;;;;;;2.20;2.10;;;;;;;21.31;100.00;99625.23;105181;1257;73850;-46
2023/06/25 05:43:46;;;;;;;1.80;1.70;;;;;;;21.34;100.00;99619.67;104914;1255;67514;-46
2023/06/25 05:46:13;;;;;;;3.50;1.90;;;;;;;21.36;100.00;99614.55;104960;1259;70664;-47
2023/06/25 05:48:40;;;;;;;2.40;2.30;;;;;;;21.39;100.00;99606.05;104987;1258;60698;-47
2023/06/25 05:51:08;;;;;;;3.80;3.40;;;;;;;21.43;100.00;99608.79;105275;1254;60661;-45
2023/06/25 05:53:40;;;;;;;2.80;2.60;;;;;;;21.48;100.00;99607.40;105623;1256;73527;-48
2023/06/25 05:56:07;;;;;;;3.80;3.50;;;;;;;21.55;100.00;99606.89;105251;1255;67679;-47
2023/06/25 05:58:35;;;;;;;3.40;3.20;;;;;;;21.62;100.00;99601.27;105284;1258;72509;-48
2023/06/25 06:01:03;;;;;;;3.90;3.60;;;;;;;21.68;100.00;99598.45;105217;1259;60621;-49
2023/06/25 06:03:30;;;;;;;4.30;4.00;;;;;;;21.76;100.00;99595.33;105322;1259;60444;-46
2023/06/25 06:05:59;;;;;;;3.30;3.10;;;;;;;21.83;100.00;99598.17;105276;1256;72351;-48
2023/06/25 06:08:26;;;;;;;4.20;4.00;;;;;;;21.91;100.00;99598.84;105342;1259;70246;-48
2023/06/25 06:10:54;;;;;;;4.30;3.50;;;;;;;21.97;100.00;99593.55;105273;1260;72060;-48
2023/06/25 06:13:21;;;;;;;4.50;3.40;;;;;;;22.03;100.00;99585.48;104783;1259;60563;-47
2023/06/25 06:15:49;;;;;;;3.50;3.10;;;;;;;22.07;100.00;99576.45;104668;1259;60526;-48
2023/06/25 06:18:16;;;;;;;3.20;2.80;;;;;;;22.11;100.00;99578.07;104648;1255;72894;-46
2023/06/25 06:20:43;;;;;;;3.90;3.20;;;;;;;22.13;100.00;99574.13;104555;1259;66629;-47
2023/06/25 06:23:10;;;;;;;3.50;3.30;;;;;;;22.15;100.00;99567.95;104839;1260;72455;-47
2023/06/25 06:25:38;;;;;;;5.80;3.30;;;;;;;22.18;100.00;99564.02;104881;1260;60704;-46
2023/06/25 06:28:06;;;;;;;4.40;3.90;;;;;;;22.19;100.00;99560.04;108823;1254;59301;-47
2023/06/25 06:30:33;;;;;;;3.40;3.00;;;;;;;22.21;100.00;99559.84;109060;1259;74785;-47
2023/06/25 06:33:00;;;;;;;3.50;3.20;;;;;;;22.23;100.00;99556.92;108923;1254;68048;-48
2023/06/25 06:35:28;;;;;;;2.10;2.00;;;;;;;22.24;100.00;99554.02;108797;1255;73148;-49
2023/06/25 06:37:55;;;;;;;3.00;2.90;;;;;;;22.28;100.00;99551.91;108749;1257;60679;-47
2023/06/25 06:40:23;;;;;;;2.90;2.70;;;;;;;22.30;100.00;99549.48;106239;1259;60314;-48
2023/06/25 06:42:51;;;;;;;2.70;2.50;;;;;;;22.29;100.00;99545.92;104756;1260;72627;-47
2023/06/25 06:45:23;;;;;;;3.60;3.20;;;;;;;22.26;100.00;99542.13;108815;1262;69895;-49
2023/06/25 06:47:53;;;;;;;3.40;3.20;;;;;;;22.27;100.00;99535.66;108736;1254;73318;-49
2023/06/25 06:50:21;;;;;;;3.20;3.00;;;;;;;22.26;100.00;99539.10;108853;1253;60523;-49
2023/06/25 06:52:48;;;;;;;3.50;3.20;;;;;;;22.21;100.00;99534.45;108944;1254;62200;-48
2023/06/25 06:55:16;;;;;;;3.20;2.20;;;;;;;22.19;100.00;99533.95;109072;1254;73842;-48
2023/06/25 06:57:43;;;;;;;3.10;2.80;;;;;;;22.17;100.00;99527.35;109013;1254;66367;-47
2023/06/25 07:00:11;;;;;;;3.40;3.10;;;;;;;22.16;100.00;99523.23;109136;1259;71755;-47
2023/06/25 07:02:38;;;;;;;3.20;3.10;;;;;;;22.18;100.00;99518.48;108857;1254;60223;-49
2023/06/25 07:05:06;;;;;;;2.20;1.90;;;;;;;22.22;100.00;99515.48;107642;1259;58850;-50
2023/06/25 07:07:33;;;;;;;1.50;1.40;;;;;;;22.29;100.00;99499.65;107970;1257;72864;-49
2023/06/25 07:10:01;;;;;;;2.40;2.30;;;;;;;22.35;100.00;99496.54;105313;1267;67273;-49
2023/06/25 07:12:28;;;;;;;4.10;3.60;;;;;;;22.43;100.00;99489.86;104935;1259;71401;-48
2023/06/25 07:14:55;;;;;;;4.00;3.20;;;;;;;22.48;100.00;99490.80;104823;1254;60968;-49
2023/06/25 07:17:24;;;;;;;3.90;3.70;;;;;;;22.47;100.00;99489.96;105312;1258;60544;-48
2023/06/25 07:19:51;;;;;;;3.20;2.60;;;;;;;22.48;100.00;99490.88;106006;1258;73808;-48
2023/06/25 07:22:19;;;;;;;3.20;3.00;;;;;;;22.53;100.00;99485.86;105146;1264;67909;-47
2023/06/25 07:24:46;;;;;;;3.90;3.10;;;;;;;22.61;100.00;99482.33;105290;1257;71324;-47
2023/06/25 07:27:13;;;;;;;3.90;3.70;;;;;;;22.69;100.00;99477.67;105149;1255;60568;-47
2023/06/25 07:29:41;;;;;;;5.10;3.30;;;;;;;22.75;100.00;99468.83;105189;1257;60540;-47
2023/06/25 07:32:08;;;;;;;3.40;3.20;;;;;;;22.81;100.00;99465.77;105211;1254;72368;-47
2023/06/25 07:34:36;;;;;;;4.40;4.00;;;;;;;22.87;100.00;99465.92;105090;1254;67621;-49
2023/06/25 07:37:04;;;;;;;3.80;3.40;;;;;;;22.92;100.00;99468.27;105029;1259;71911;-47
2023/06/25 07:39:33;;;;;;;4.50;4.20;;;;;;;22.97;100.00;99467.01;105090;1260;60569;-46
2023/06/25 07:42:00;;;;;;;3.10;2.90;;;;;;;23.03;100.00;99464.59;105183;1257;61720;-49
2023/06/25 07:44:28;;;;;;;3.60;3.40;;;;;;;23.07;100.00;99463.10;105204;1259;72639;-47
2023/06/25 07:46:58;;;;;;;4.10;3.60;;;;;;;23.10;100.00;99463.89;105167;1259;66731;-48
2023/06/25 07:49:25;;;;;;;3.40;3.20;;;;;;;23.12;100.00;99464.59;105209;1260;72634;-49
2023/06/25 07:51:53;;;;;;;3.00;2.80;;;;;;;23.16;100.00;99464.74;105154;1258;60555;-46
2023/06/25 07:54:21;;;;;;;2.50;2.40;;;;;;;23.20;100.00;99462.65;105949;1259;60355;-49
2023/06/25 07:56:48;;;;;;;2.70;2.50;;;;;;;23.25;100.00;99455.70;105387;1253;73868;-46
2023/06/25 07:59:15;;;;;;;2.60;2.40;;;;;;;23.27;100.00;99456.55;105441;1257;66807;-47
2023/06/25 08:01:44;;;;;;;2.60;1.90;;;;;;;23.31;100.00;99452.69;105110;1258;74631;-48
2023/06/25 08:04:11;;;;;;;1.60;1.50;;;;;;;23.36;100.00;99452.69;105104;1254;60573;-47
2023/06/25 08:06:39;;;;;;;4.40;2.90;;;;;;;23.43;100.00;99448.09;105909;1257;60539;-49
2023/06/25 08:09:07;;;;;;;1.90;1.80;;;;;;;23.49;100.00;99442.33;105098;1264;72939;-47
2023/06/25 08:11:34;;;;;;;2.10;1.90;;;;;;;23.56;100.00;99441.61;105284;1254;67674;-48
2023/06/25 08:14:02;;;;;;;2.10;1.60;;;;;;;23.64;100.00;99443.30;105155;1255;74873;-48
2023/06/25 08:16:29;;;;;;;1.80;1.70;;;;;;;23.66;100.00;99439.96;105372;1260;60560;-49
2023/06/25 08:18:57;;;;;;;3.10;1.70;;;;;;;23.66;100.00;99435.71;105237;1259;60632;-48
2023/06/25 08:21:24;;;;;;;2.00;1.80;;;;;;;23.69;100.00;99433.94;105272;1261;73736;-49
2023/06/25 08:23:52;;;;;;;2.30;1.70;;;;;;;23.74;100.00;99429.36;105425;1254;67704;-47
2023/06/25 08:26:19;;;;;;;1.40;1.30;;;;;;;23.78;100.00;99424.71;105471;1260;71389;-47
2023/06/25 08:28:46;;;;;;;3.00;2.20;;;;;;;23.77;100.00;99424.09;105264;1259;60436;-48
2023/06/25 08:31:14;;;;;;;1.60;1.50;;;;;;;23.75;100.00;99420.21;105223;1263;60441;-48
2023/06/25 08:33:41;;;;;;;2.70;1.70;;;;;;;23.79;100.00;99418.08;105337;1251;75842;-48
2023/06/25 08:36:09;;;;;;;2.50;1.70;;;;;;;23.81;100.00;99414.86;105361;1259;67226;-49
2023/06/25 08:38:36;;;;;;;2.40;2.20;;;;;;;23.83;100.00;99418.67;105333;1258;73080;-48
2023/06/25 08:41:04;;;;;;;2.00;1.70;;;;;;;23.84;100.00;99415.13;105343;1254;60924;-46
2023/06/25 08:43:31;;;;;;;2.80;2.00;;;;;;;23.87;100.00;99414.44;105296;1254;60515;-50
2023/06/25 08:45:58;;;;;;;1.90;1.80;;;;;;;23.92;100.00;99412.59;105207;1256;73825;-50
2023/06/25 08:48:27;;;;;;;2.40;1.90;;;;;;;23.94;100.00;99412.39;105274;1258;66771;-47
2023/06/25 08:50:56;;;;;;;3.50;2.40;;;;;;;23.92;100.00;99407.84;105158;1259;72453;-50
2023/06/25 08:53:25;;;;;;;2.00;1.80;;;;;;;23.88;100.00;99406.48;106380;1257;61778;-47
2023/06/25 08:55:54;;;;;;;2.00;1.90;;;;;;;23.86;100.00;99405.98;105353;1260;60454;-50
2023/06/25 08:58:22;;;;;;;1.90;1.70;;;;;;;23.87;100.00;99409.08;106145;1256;73878;-50
2023/06/25 09:00:50;;;;;;;1.80;1.60;;;;;;;23.94;100.00;99402.33;107146;1254;66868;-49
2023/06/25 09:03:18;;;;;;;2.30;2.20;;;;;;;24.03;100.00;99401.48;106556;1259;72679;-49
2023/06/25 09:05:53;;;;;;;2.30;2.10;;;;;;;24.08;100.00;99394.89;105391;1258;60440;-50
2023/06/25 09:08:22;;;;;;;2.40;2.20;;;;;;;24.07;100.00;99397.29;105774;1254;60462;-49
2023/06/25 09:10:51;;;;;;;2.10;2.00;;;;;;;24.05;100.00;99394.33;105030;1258;73924;-47
2023/06/25 09:13:25;;;;;;;2.20;2.10;;;;;;;24.02;100.00;99388.19;104917;1257;66936;-48
2023/06/25 09:15:59;;;;;;;1.70;1.60;;;;;;;24.03;100.00;99386.40;105123;1269;73125;-48
2023/06/25 09:18:26;;;;;;;2.00;1.90;;;;;;;24.03;100.00;99383.55;108651;1254;60149;-48
2023/06/25 09:20:53;;;;;;;3.20;2.20;;;;;;;24.02;100.00;99379.02;105077;1254;390712;-46
2023/06/25 09:24:17;;;;;;;2.20;2.10;;;;;;;23.98;100.00;99368.46;102237;1299;600472;-50
2023/06/25 09:26:45;;;;;;;2.50;2.40;;;;;;;23.94;100.00;99380.64;108266;1269;58859;-48
2023/06/25 09:29:12;;;;;;;3.20;2.30;;;;;;;23.94;100.00;99379.92;108266;1267;62182;-48
2023/06/25 09:31:42;;;;;;;3.40;2.00;;;;;;;23.90;100.00;99375.80;108131;1267;70980;-49
2023/06/25 09:34:18;;;;;;;4.60;2.30;;;;;;;23.86;100.00;99376.02;108123;1264;68839;-49
2023/06/25 09:36:46;;;;;;;2.00;1.90;;;;;;;23.81;100.00;99374.73;107826;1270;280220;-49
2023/06/25 09:39:13;;;;;;;2.00;1.90;;;;;;;23.76;100.00;99375.82;108197;1268;61714;-48
2023/06/25 09:41:41;;;;;;;1.80;1.70;;;;;;;23.69;100.00;99373.87;108423;1264;60003;-48
2023/06/25 09:44:10;;;;;;;2.10;1.70;;;;;;;23.62;100.00;99375.77;108394;1262;71304;-48
2023/06/25 09:46:38;;;;;;;1.70;1.60;;;;;;;23.57;100.00;99371.55;108291;1268;67832;-51
2023/06/25 09:49:07;;;;;;;2.70;1.90;;;;;;;23.52;100.00;99369.85;108412;1269;71479;-48
2023/06/25 09:52:10;;;;;;;2.10;2.00;;;;;;;23.49;100.00;99370.02;108758;1257;59809;-50
2023/06/25 09:54:38;;;;;;;4.80;2.40;;;;;;;23.46;100.00;99371.42;108645;1257;60559;-49
2023/06/25 09:57:09;;;;;;;3.00;2.80;;;;;;;23.44;100.00;99372.57;108667;1258;73018;-47
2023/06/25 09:59:36;;;;;;;4.30;2.90;;;;;;;23.38;100.00;99374.95;108588;1256;66443;-48
2023/06/25 10:02:06;;;;;;;2.70;2.50;;;;;;;23.29;100.00;99372.70;108708;1260;71454;-47
2023/06/25 10:04:34;;;;;;;3.10;2.80;;;;;;;23.13;100.00;99364.86;108493;1258;62044;-48
2023/06/25 10:07:02;;;;;;;3.00;2.40;;;;;;;22.98;100.00;99360.66;108468;1257;60152;-47
2023/06/25 10:09:29;;;;;;;4.00;2.70;;;;;;;22.89;100.00;99354.11;108417;1257;73042;-46
2023/06/25 10:11:56;;;;;;;2.50;2.40;;;;;;;22.85;100.00;99349.73;108697;1257;69824;-47
2023/06/25 10:14:24;;;;;;;3.30;2.80;;;;;;;22.83;100.00;99345.73;108539;1258;72542;-47
2023/06/25 10:16:55;;;;;;;3.10;2.70;;;;;;;22.82;100.00;99342.92;108545;1257;61693;-46
2023/06/25 10:19:23;;;;;;;2.70;2.50;;;;;;;22.83;100.00;99344.50;108457;1262;61152;-46
2023/06/25 10:22:04;;;;;;;3.70;3.40;;;;;;;22.83;100.00;99343.52;108242;1262;75214;-49
2023/06/25 10:24:46;;;;;;;6.30;2.80;;;;;;;22.86;100.00;99344.98;108500;1262;67588;-49
2023/06/25 10:27:20;;;;;;;3.30;2.60;;;;;;;22.86;100.00;99345.28;108591;1260;74547;-48
2023/06/25 10:29:47;;;;;;;2.80;2.70;;;;;;;22.87;100.00;99346.86;108692;1261;61761;-47
2023/06/25 10:32:20;;;;;;;2.40;2.20;;;;;;;22.87;100.00;99345.34;104573;1260;59590;-49
2023/06/25 10:34:55;;;;;;;3.80;3.50;;;;;;;22.88;100.00;99343.79;105668;1259;73028;-48
2023/06/25 10:37:27;;;;;;;3.70;3.60;;;;;;;22.88;100.00;99340.08;108627;1257;66349;-51
2023/06/25 10:40:06;;;;;;;4.60;4.30;;;;;;;22.90;100.00;99337.52;105934;1262;72670;-48
2023/06/25 10:42:35;;;;;;;3.20;2.90;;;;;;;22.94;100.00;99337.67;106654;1260;60923;-49
2023/06/25 10:45:03;;;;;;;2.80;2.30;;;;;;;22.98;100.00;99331.39;105242;1258;59614;-50
2023/06/25 10:47:33;;;;;;;2.50;2.30;;;;;;;23.04;100.00;99329.85;104939;1259;73558;-47
2023/06/25 10:50:01;;;;;;;3.80;2.30;;;;;;;23.10;100.00;99328.06;105479;1258;67176;-50
2023/06/25 10:52:29;;;;;;;3.10;2.70;;;;;;;23.18;100.00;99330.52;105037;1262;72436;-49
2023/06/25 10:54:56;;;;;;;2.30;2.10;;;;;;;23.25;100.00;99330.11;104795;1264;60028;-49
2023/06/25 10:57:24;;;;;;;2.60;2.20;;;;;;;23.30;100.00;99331.01;104735;1264;60060;-49
2023/06/25 10:59:51;;;;;;;4.30;3.60;;;;;;;23.34;100.00;99331.80;105083;1263;73042;-47
2023/06/25 11:02:21;;;;;;;3.00;2.80;;;;;;;23.37;100.00;99334.78;104907;1264;67043;-48
2023/06/25 11:04:54;;;;;;;2.60;2.50;;;;;;;23.38;100.00;99336.61;105171;1257;71429;-49
2023/06/25 11:07:22;;;;;;;4.00;3.40;;;;;;;23.35;100.00;99333.73;105218;1263;60058;-49
2023/06/25 11:09:54;;;;;;;3.10;2.90;;;;;;;23.31;100.00;99332.30;108357;1257;60402;-47
2023/06/25 11:12:21;;;;;;;3.10;3.00;;;;;;;23.28;100.00;99334.60;107628;1263;73071;-46
2023/06/25 11:14:49;;;;;;;3.30;2.60;;;;;;;23.23;100.00;99333.75;104935;1264;69294;-49
2023/06/25 11:17:17;;;;;;;2.80;2.60;;;;;;;23.19;100.00;99330.06;104927;1257;76181;-49
2023/06/25 11:19:54;;;;;;;3.30;2.00;;;;;;;23.13;100.00;99325.78;104002;1262;63522;-49
2023/06/25 11:22:21;;;;;;;2.40;2.30;;;;;;;23.08;100.00;99329.61;104376;1258;59791;-47
2023/06/25 11:24:49;;;;;;;3.00;2.80;;;;;;;23.03;100.00;99325.21;107187;1262;73299;-48